sensor_id;sensor_type;location;lat;lon;timestamp;P1;durP1;ratioP1;P2;durP2;ratioP2
5052;SDS011;2545;50.892;5.740;2023-06-24T00:01:14;13.20;;;7.90;;
5052;SDS011;2545;50.892;5.740;2023-06-24T00:03:40;9.83;;;7.80;;
5052;SDS011;2545;50.892;5.740;2023-06-24T00:06:06;12.20;;;8.50;;
5052;SDS011;2545;50.892;5.740;2023-06-24T00:08:31;13.93;;;8.10;;
5052;SDS011;2545;50.892;5.740;2023-06-24T00:11:01;15.77;;;8.40;;
5052;SDS011;2545;50.892;5.740;2023-06-24T00:13:27;12.40;;;9.03;;
5052;SDS011;2545;50.892;5.740;2023-06-24T00:15:54;11.23;;;8.30;;
5052;SDS011;2545;50.892;5.740;2023-06-24T00:18:20;9.90;;;7.33;;
5052;SDS011;2545;50.892;5.740;2023-06-24T00:20:45;8.63;;;7.73;;
5052;SDS011;2545;50.892;5.740;2023-06-24T00:23:11;19.57;;;9.00;;
5052;SDS011;2545;50.892;5.740;2023-06-24T00:25:42;9.67;;;8.67;;
5052;SDS011;2545;50.892;5.740;2023-06-24T00:28:07;16.50;;;8.80;;
5052;SDS011;2545;50.892;5.740;2023-06-24T00:30:32;9.50;;;8.47;;
5052;SDS011;2545;50.892;5.740;2023-06-24T00:32:58;21.43;;;8.83;;
5052;SDS011;2545;50.892;5.740;2023-06-24T00:35:23;14.23;;;9.60;;
5052;SDS011;2545;50.892;5.740;2023-06-24T00:37:49;11.97;;;9.00;;
5052;SDS011;2545;50.892;5.740;2023-06-24T00:40:14;15.60;;;9.43;;
5052;SDS011;2545;50.892;5.740;2023-06-24T00:42:43;11.30;;;8.50;;
5052;SDS011;2545;50.892;5.740;2023-06-24T00:45:09;17.93;;;8.93;;
5052;SDS011;2545;50.892;5.740;2023-06-24T00:47:36;13.17;;;9.20;;
5052;SDS011;2545;50.892;5.740;2023-06-24T00:50:01;14.77;;;8.73;;
5052;SDS011;2545;50.892;5.740;2023-06-24T00:52:27;13.80;;;9.43;;
5052;SDS011;2545;50.892;5.740;2023-06-24T00:54:52;13.60;;;9.37;;
5052;SDS011;2545;50.892;5.740;2023-06-24T00:57:18;16.90;;;8.87;;
5052;SDS011;2545;50.892;5.740;2023-06-24T00:59:49;11.87;;;9.13;;
5052;SDS011;2545;50.892;5.740;2023-06-24T01:02:18;18.20;;;10.13;;
5052;SDS011;2545;50.892;5.740;2023-06-24T01:04:45;14.87;;;9.83;;
5052;SDS011;2545;50.892;5.740;2023-06-24T01:07:13;22.50;;;10.60;;
5052;SDS011;2545;50.892;5.740;2023-06-24T01:09:40;10.93;;;8.93;;
5052;SDS011;2545;50.892;5.740;2023-06-24T01:12:06;13.27;;;9.77;;
5052;SDS011;2545;50.892;5.740;2023-06-24T01:14:33;14.47;;;9.30;;
5052;SDS011;2545;50.892;5.740;2023-06-24T01:17:03;15.07;;;10.30;;
5052;SDS011;2545;50.892;5.740;2023-06-24T01:28:05;16.20;;;11.40;;
5052;SDS011;2545;50.892;5.740;2023-06-24T01:31:00;12.73;;;10.00;;
5052;SDS011;2545;50.892;5.740;2023-06-24T01:33:45;19.13;;;10.80;;
5052;SDS011;2545;50.892;5.740;2023-06-24T01:36:14;15.23;;;10.90;;
5052;SDS011;2545;50.892;5.740;2023-06-24T01:38:43;19.23;;;9.87;;
5052;SDS011;2545;50.892;5.740;2023-06-24T01:41:19;13.77;;;10.80;;
5052;SDS011;2545;50.892;5.740;2023-06-24T01:43:50;18.33;;;10.10;;
5052;SDS011;2545;50.892;5.740;2023-06-24T01:46:19;15.57;;;10.97;;
5052;SDS011;2545;50.892;5.740;2023-06-24T01:48:47;15.67;;;10.20;;
5052;SDS011;2545;50.892;5.740;2023-06-24T01:51:17;17.83;;;10.87;;
5052;SDS011;2545;50.892;5.740;2023-06-24T01:53:48;19.20;;;11.07;;
5052;SDS011;2545;50.892;5.740;2023-06-24T01:56:17;19.77;;;10.10;;
5052;SDS011;2545;50.892;5.740;2023-06-24T01:58:45;15.43;;;10.90;;
5052;SDS011;2545;50.892;5.740;2023-06-24T02:01:13;19.30;;;11.60;;
5052;SDS011;2545;50.892;5.740;2023-06-24T02:03:41;18.97;;;10.40;;
5052;SDS011;2545;50.892;5.740;2023-06-24T02:06:07;20.47;;;12.67;;
5052;SDS011;2545;50.892;5.740;2023-06-24T02:08:37;17.50;;;11.23;;
5052;SDS011;2545;50.892;5.740;2023-06-24T02:11:06;15.40;;;12.10;;
5052;SDS011;2545;50.892;5.740;2023-06-24T02:13:33;16.53;;;10.90;;
5052;SDS011;2545;50.892;5.740;2023-06-24T02:16:03;19.97;;;11.93;;
5052;SDS011;2545;50.892;5.740;2023-06-24T02:18:33;17.40;;;10.47;;
5052;SDS011;2545;50.892;5.740;2023-06-24T02:21:00;13.53;;;10.40;;
5052;SDS011;2545;50.892;5.740;2023-06-24T02:23:26;17.07;;;11.97;;
5052;SDS011;2545;50.892;5.740;2023-06-24T02:25:54;15.93;;;10.40;;
5052;SDS011;2545;50.892;5.740;2023-06-24T02:28:20;19.67;;;11.57;;
5052;SDS011;2545;50.892;5.740;2023-06-24T02:30:46;23.73;;;11.57;;
5052;SDS011;2545;50.892;5.740;2023-06-24T02:33:12;18.33;;;11.63;;
5052;SDS011;2545;50.892;5.740;2023-06-24T02:35:38;15.47;;;11.53;;
5052;SDS011;2545;50.892;5.740;2023-06-24T02:38:06;18.97;;;10.97;;
5052;SDS011;2545;50.892;5.740;2023-06-24T02:40:32;24.00;;;11.60;;
5052;SDS011;2545;50.892;5.740;2023-06-24T02:42:57;18.70;;;10.97;;
5052;SDS011;2545;50.892;5.740;2023-06-24T02:45:25;17.13;;;12.23;;
5052;SDS011;2545;50.892;5.740;2023-06-24T02:47:51;15.87;;;11.07;;
5052;SDS011;2545;50.892;5.740;2023-06-24T02:50:18;17.30;;;10.93;;
5052;SDS011;2545;50.892;5.740;2023-06-24T02:52:44;21.23;;;13.30;;
5052;SDS011;2545;50.892;5.740;2023-06-24T02:55:10;27.73;;;13.60;;
5052;SDS011;2545;50.892;5.740;2023-06-24T02:57:36;17.67;;;12.27;;
5052;SDS011;2545;50.892;5.740;2023-06-24T03:00:04;21.80;;;12.87;;
5052;SDS011;2545;50.892;5.740;2023-06-24T03:02:30;15.13;;;11.30;;
5052;SDS011;2545;50.892;5.740;2023-06-24T03:04:57;19.73;;;11.47;;
5052;SDS011;2545;50.892;5.740;2023-06-24T03:07:27;18.17;;;11.80;;
5052;SDS011;2545;50.892;5.740;2023-06-24T03:09:53;17.70;;;11.97;;
5052;SDS011;2545;50.892;5.740;2023-06-24T03:12:18;22.53;;;12.27;;
5052;SDS011;2545;50.892;5.740;2023-06-24T03:14:44;20.47;;;13.40;;
5052;SDS011;2545;50.892;5.740;2023-06-24T03:17:09;19.13;;;12.23;;
5052;SDS011;2545;50.892;5.740;2023-06-24T03:19:36;17.60;;;11.90;;
5052;SDS011;2545;50.892;5.740;2023-06-24T03:22:02;20.43;;;13.50;;
5052;SDS011;2545;50.892;5.740;2023-06-24T03:24:28;22.70;;;12.83;;
5052;SDS011;2545;50.892;5.740;2023-06-24T03:26:54;21.07;;;12.57;;
5052;SDS011;2545;50.892;5.740;2023-06-24T03:29:22;22.43;;;13.57;;
5052;SDS011;2545;50.892;5.740;2023-06-24T03:31:47;22.67;;;13.00;;
5052;SDS011;2545;50.892;5.740;2023-06-24T03:34:13;25.77;;;13.50;;
5052;SDS011;2545;50.892;5.740;2023-06-24T03:36:38;19.17;;;14.40;;
5052;SDS011;2545;50.892;5.740;2023-06-24T03:39:04;24.23;;;13.60;;
5052;SDS011;2545;50.892;5.740;2023-06-24T03:41:30;22.53;;;12.57;;
5052;SDS011;2545;50.892;5.740;2023-06-24T03:43:55;40.00;;;14.60;;
5052;SDS011;2545;50.892;5.740;2023-06-24T03:46:21;22.73;;;14.77;;
5052;SDS011;2545;50.892;5.740;2023-06-24T03:48:46;30.30;;;14.60;;
5052;SDS011;2545;50.892;5.740;2023-06-24T03:51:12;18.20;;;12.97;;
5052;SDS011;2545;50.892;5.740;2023-06-24T03:53:37;20.13;;;13.30;;
5052;SDS011;2545;50.892;5.740;2023-06-24T03:56:03;24.87;;;13.80;;
5052;SDS011;2545;50.892;5.740;2023-06-24T03:58:29;28.03;;;14.73;;
5052;SDS011;2545;50.892;5.740;2023-06-24T04:00:54;17.37;;;12.67;;
5052;SDS011;2545;50.892;5.740;2023-06-24T04:03:21;21.10;;;15.03;;
5052;SDS011;2545;50.892;5.740;2023-06-24T04:05:47;19.17;;;13.77;;
5052;SDS011;2545;50.892;5.740;2023-06-24T04:08:12;26.40;;;13.27;;
5052;SDS011;2545;50.892;5.740;2023-06-24T04:10:38;23.53;;;13.13;;
5052;SDS011;2545;50.892;5.740;2023-06-24T04:13:03;28.03;;;13.40;;
5052;SDS011;2545;50.892;5.740;2023-06-24T04:15:28;26.17;;;14.10;;
5052;SDS011;2545;50.892;5.740;2023-06-24T04:17:54;26.00;;;12.77;;
5052;SDS011;2545;50.892;5.740;2023-06-24T04:20:19;21.47;;;13.43;;
5052;SDS011;2545;50.892;5.740;2023-06-24T04:22:44;24.57;;;14.40;;
5052;SDS011;2545;50.892;5.740;2023-06-24T04:25:10;21.13;;;13.53;;
5052;SDS011;2545;50.892;5.740;2023-06-24T04:27:37;22.70;;;12.77;;
5052;SDS011;2545;50.892;5.740;2023-06-24T04:30:02;27.00;;;12.87;;
5052;SDS011;2545;50.892;5.740;2023-06-24T04:32:28;27.77;;;14.40;;
5052;SDS011;2545;50.892;5.740;2023-06-24T04:34:54;20.77;;;13.80;;
5052;SDS011;2545;50.892;5.740;2023-06-24T04:37:19;21.53;;;12.93;;
5052;SDS011;2545;50.892;5.740;2023-06-24T04:39:45;21.40;;;12.90;;
5052;SDS011;2545;50.892;5.740;2023-06-24T04:42:11;19.87;;;11.70;;
5052;SDS011;2545;50.892;5.740;2023-06-24T04:44:37;20.97;;;12.60;;
5052;SDS011;2545;50.892;5.740;2023-06-24T04:47:02;21.53;;;13.50;;
5052;SDS011;2545;50.892;5.740;2023-06-24T04:49:28;21.33;;;12.47;;
5052;SDS011;2545;50.892;5.740;2023-06-24T04:51:53;18.50;;;13.50;;
5052;SDS011;2545;50.892;5.740;2023-06-24T04:54:19;21.10;;;13.43;;
5052;SDS011;2545;50.892;5.740;2023-06-24T04:56:44;28.90;;;15.33;;
5052;SDS011;2545;50.892;5.740;2023-06-24T04:59:10;21.40;;;13.70;;
5052;SDS011;2545;50.892;5.740;2023-06-24T05:01:36;24.10;;;13.20;;
5052;SDS011;2545;50.892;5.740;2023-06-24T05:04:01;21.17;;;14.27;;
5052;SDS011;2545;50.892;5.740;2023-06-24T05:06:26;21.63;;;13.57;;
5052;SDS011;2545;50.892;5.740;2023-06-24T05:08:52;24.53;;;13.90;;
5052;SDS011;2545;50.892;5.740;2023-06-24T05:11:17;21.23;;;13.20;;
5052;SDS011;2545;50.892;5.740;2023-06-24T05:13:43;23.30;;;13.60;;
5052;SDS011;2545;50.892;5.740;2023-06-24T05:16:08;25.17;;;13.63;;
5052;SDS011;2545;50.892;5.740;2023-06-24T05:18:33;23.83;;;15.33;;
5052;SDS011;2545;50.892;5.740;2023-06-24T05:20:59;24.27;;;13.80;;
5052;SDS011;2545;50.892;5.740;2023-06-24T05:23:24;20.53;;;13.93;;
5052;SDS011;2545;50.892;5.740;2023-06-24T05:25:49;25.57;;;13.77;;
5052;SDS011;2545;50.892;5.740;2023-06-24T05:28:15;23.93;;;12.27;;
5052;SDS011;2545;50.892;5.740;2023-06-24T05:30:40;22.93;;;13.13;;
5052;SDS011;2545;50.892;5.740;2023-06-24T05:33:06;18.00;;;11.53;;
5052;SDS011;2545;50.892;5.740;2023-06-24T05:35:31;21.70;;;12.53;;
5052;SDS011;2545;50.892;5.740;2023-06-24T05:37:57;18.20;;;11.30;;
5052;SDS011;2545;50.892;5.740;2023-06-24T05:40:22;16.30;;;11.43;;
5052;SDS011;2545;50.892;5.740;2023-06-24T05:42:47;17.47;;;11.50;;
5052;SDS011;2545;50.892;5.740;2023-06-24T05:45:13;28.40;;;11.10;;
5052;SDS011;2545;50.892;5.740;2023-06-24T05:47:38;18.77;;;10.63;;
5052;SDS011;2545;50.892;5.740;2023-06-24T05:50:04;16.97;;;11.13;;
5052;SDS011;2545;50.892;5.740;2023-06-24T05:52:29;18.20;;;9.87;;
5052;SDS011;2545;50.892;5.740;2023-06-24T05:54:55;14.80;;;9.30;;
5052;SDS011;2545;50.892;5.740;2023-06-24T05:57:20;15.03;;;8.90;;
5052;SDS011;2545;50.892;5.740;2023-06-24T05:59:46;20.00;;;8.50;;
5052;SDS011;2545;50.892;5.740;2023-06-24T06:02:11;13.57;;;8.10;;
5052;SDS011;2545;50.892;5.740;2023-06-24T06:04:38;13.80;;;7.30;;
5052;SDS011;2545;50.892;5.740;2023-06-24T06:07:03;9.03;;;6.67;;
5052;SDS011;2545;50.892;5.740;2023-06-24T06:09:29;11.13;;;5.80;;
5052;SDS011;2545;50.892;5.740;2023-06-24T06:11:54;19.93;;;7.13;;
5052;SDS011;2545;50.892;5.740;2023-06-24T06:14:19;11.50;;;6.80;;
5052;SDS011;2545;50.892;5.740;2023-06-24T06:16:45;8.60;;;5.70;;
5052;SDS011;2545;50.892;5.740;2023-06-24T06:19:10;11.40;;;6.37;;
5052;SDS011;2545;50.892;5.740;2023-06-24T06:21:36;9.40;;;5.90;;
5052;SDS011;2545;50.892;5.740;2023-06-24T06:24:02;12.50;;;6.07;;
5052;SDS011;2545;50.892;5.740;2023-06-24T06:26:28;9.67;;;5.40;;
5052;SDS011;2545;50.892;5.740;2023-06-24T06:28:53;13.90;;;5.83;;
5052;SDS011;2545;50.892;5.740;2023-06-24T06:31:19;8.87;;;5.97;;
5052;SDS011;2545;50.892;5.740;2023-06-24T06:33:46;9.00;;;5.30;;
5052;SDS011;2545;50.892;5.740;2023-06-24T06:36:11;8.27;;;5.70;;
5052;SDS011;2545;50.892;5.740;2023-06-24T06:38:36;7.57;;;5.20;;
5052;SDS011;2545;50.892;5.740;2023-06-24T06:41:02;12.73;;;7.30;;
5052;SDS011;2545;50.892;5.740;2023-06-24T06:43:27;15.10;;;6.53;;
5052;SDS011;2545;50.892;5.740;2023-06-24T06:45:53;11.80;;;6.47;;
5052;SDS011;2545;50.892;5.740;2023-06-24T06:48:18;7.57;;;5.20;;
5052;SDS011;2545;50.892;5.740;2023-06-24T06:50:44;8.93;;;5.77;;
5052;SDS011;2545;50.892;5.740;2023-06-24T06:53:10;8.23;;;5.53;;
5052;SDS011;2545;50.892;5.740;2023-06-24T06:55:36;9.63;;;5.63;;
5052;SDS011;2545;50.892;5.740;2023-06-24T06:58:02;10.17;;;5.77;;
5052;SDS011;2545;50.892;5.740;2023-06-24T07:00:27;9.93;;;5.83;;
5052;SDS011;2545;50.892;5.740;2023-06-24T07:02:53;15.97;;;6.23;;
5052;SDS011;2545;50.892;5.740;2023-06-24T07:05:18;9.13;;;5.00;;
5052;SDS011;2545;50.892;5.740;2023-06-24T07:07:44;8.00;;;4.10;;
5052;SDS011;2545;50.892;5.740;2023-06-24T07:10:10;15.20;;;5.00;;
5052;SDS011;2545;50.892;5.740;2023-06-24T07:12:36;9.03;;;4.83;;
5052;SDS011;2545;50.892;5.740;2023-06-24T07:15:01;8.10;;;4.70;;
5052;SDS011;2545;50.892;5.740;2023-06-24T07:17:26;8.07;;;4.87;;
5052;SDS011;2545;50.892;5.740;2023-06-24T07:19:52;7.03;;;4.40;;
5052;SDS011;2545;50.892;5.740;2023-06-24T07:22:17;8.87;;;4.97;;
5052;SDS011;2545;50.892;5.740;2023-06-24T07:24:42;10.03;;;5.30;;
5052;SDS011;2545;50.892;5.740;2023-06-24T07:27:08;7.60;;;4.63;;
5052;SDS011;2545;50.892;5.740;2023-06-24T07:29:33;10.03;;;5.03;;
5052;SDS011;2545;50.892;5.740;2023-06-24T07:31:59;5.97;;;4.77;;
5052;SDS011;2545;50.892;5.740;2023-06-24T07:34:24;10.40;;;4.53;;
5052;SDS011;2545;50.892;5.740;2023-06-24T07:36:49;6.13;;;4.00;;
5052;SDS011;2545;50.892;5.740;2023-06-24T07:39:15;5.63;;;3.90;;
5052;SDS011;2545;50.892;5.740;2023-06-24T07:41:41;7.90;;;4.10;;
5052;SDS011;2545;50.892;5.740;2023-06-24T07:44:07;9.67;;;4.30;;
5052;SDS011;2545;50.892;5.740;2023-06-24T07:46:33;6.77;;;4.57;;
5052;SDS011;2545;50.892;5.740;2023-06-24T07:48:58;7.37;;;4.53;;
5052;SDS011;2545;50.892;5.740;2023-06-24T07:51:24;7.20;;;4.50;;
5052;SDS011;2545;50.892;5.740;2023-06-24T07:53:49;6.27;;;4.40;;
5052;SDS011;2545;50.892;5.740;2023-06-24T07:56:14;4.97;;;3.50;;
5052;SDS011;2545;50.892;5.740;2023-06-24T07:58:40;4.83;;;3.40;;
5052;SDS011;2545;50.892;5.740;2023-06-24T08:01:05;5.47;;;3.40;;
5052;SDS011;2545;50.892;5.740;2023-06-24T08:03:31;7.27;;;3.90;;
5052;SDS011;2545;50.892;5.740;2023-06-24T08:05:56;10.33;;;3.80;;
5052;SDS011;2545;50.892;5.740;2023-06-24T08:08:21;4.17;;;3.30;;
5052;SDS011;2545;50.892;5.740;2023-06-24T08:10:47;4.30;;;3.63;;
5052;SDS011;2545;50.892;5.740;2023-06-24T08:13:12;13.53;;;3.90;;
5052;SDS011;2545;50.892;5.740;2023-06-24T08:15:38;8.40;;;3.83;;
5052;SDS011;2545;50.892;5.740;2023-06-24T08:18:03;5.67;;;3.63;;
5052;SDS011;2545;50.892;5.740;2023-06-24T08:20:28;4.57;;;3.70;;
5052;SDS011;2545;50.892;5.740;2023-06-24T08:22:54;6.00;;;3.30;;
5052;SDS011;2545;50.892;5.740;2023-06-24T08:25:19;6.50;;;3.00;;
5052;SDS011;2545;50.892;5.740;2023-06-24T08:27:45;10.30;;;3.50;;
5052;SDS011;2545;50.892;5.740;2023-06-24T08:30:11;8.70;;;3.00;;
5052;SDS011;2545;50.892;5.740;2023-06-24T08:32:38;5.50;;;3.70;;
5052;SDS011;2545;50.892;5.740;2023-06-24T08:35:05;6.13;;;3.40;;
5052;SDS011;2545;50.892;5.740;2023-06-24T08:37:32;7.83;;;4.20;;
5052;SDS011;2545;50.892;5.740;2023-06-24T08:39:57;5.67;;;3.23;;
5052;SDS011;2545;50.892;5.740;2023-06-24T08:42:23;10.80;;;3.67;;
5052;SDS011;2545;50.892;5.740;2023-06-24T08:44:49;5.57;;;3.10;;
5052;SDS011;2545;50.892;5.740;2023-06-24T08:47:14;4.07;;;2.70;;
5052;SDS011;2545;50.892;5.740;2023-06-24T08:49:46;6.13;;;3.47;;
5052;SDS011;2545;50.892;5.740;2023-06-24T08:52:14;7.27;;;3.97;;
5052;SDS011;2545;50.892;5.740;2023-06-24T08:54:43;4.63;;;3.27;;
5052;SDS011;2545;50.892;5.740;2023-06-24T08:57:11;3.90;;;2.73;;
5052;SDS011;2545;50.892;5.740;2023-06-24T08:59:40;5.90;;;3.03;;
5052;SDS011;2545;50.892;5.740;2023-06-24T09:02:06;6.10;;;3.70;;
5052;SDS011;2545;50.892;5.740;2023-06-24T09:04:32;4.97;;;3.50;;
5052;SDS011;2545;50.892;5.740;2023-06-24T09:06:57;5.50;;;2.90;;
5052;SDS011;2545;50.892;5.740;2023-06-24T09:09:23;4.77;;;3.40;;
5052;SDS011;2545;50.892;5.740;2023-06-24T09:11:52;6.00;;;3.10;;
5052;SDS011;2545;50.892;5.740;2023-06-24T09:14:22;4.67;;;2.93;;
5052;SDS011;2545;50.892;5.740;2023-06-24T09:16:59;6.13;;;3.07;;
5052;SDS011;2545;50.892;5.740;2023-06-24T09:19:27;3.70;;;3.00;;
5052;SDS011;2545;50.892;5.740;2023-06-24T09:21:54;3.53;;;2.60;;
5052;SDS011;2545;50.892;5.740;2023-06-24T09:24:30;5.30;;;3.17;;
5052;SDS011;2545;50.892;5.740;2023-06-24T09:26:56;3.47;;;3.00;;
5052;SDS011;2545;50.892;5.740;2023-06-24T09:29:27;3.97;;;3.07;;
5052;SDS011;2545;50.892;5.740;2023-06-24T09:31:56;4.83;;;3.20;;
5052;SDS011;2545;50.892;5.740;2023-06-24T09:34:23;4.27;;;3.13;;
5052;SDS011;2545;50.892;5.740;2023-06-24T09:36:52;4.53;;;3.30;;
5052;SDS011;2545;50.892;5.740;2023-06-24T09:39:19;4.70;;;3.07;;
5052;SDS011;2545;50.892;5.740;2023-06-24T09:41:53;2.90;;;2.47;;
5052;SDS011;2545;50.892;5.740;2023-06-24T09:44:18;4.77;;;3.50;;
5052;SDS011;2545;50.892;5.740;2023-06-24T09:46:44;7.90;;;3.20;;
5052;SDS011;2545;50.892;5.740;2023-06-24T09:49:10;6.63;;;3.47;;
5052;SDS011;2545;50.892;5.740;2023-06-24T09:51:38;3.53;;;3.23;;
5052;SDS011;2545;50.892;5.740;2023-06-24T09:54:08;8.43;;;3.30;;
5052;SDS011;2545;50.892;5.740;2023-06-24T09:56:39;4.90;;;3.50;;
5052;SDS011;2545;50.892;5.740;2023-06-24T09:59:08;4.90;;;3.73;;
5052;SDS011;2545;50.892;5.740;2023-06-24T10:01:36;3.43;;;2.87;;
5052;SDS011;2545;50.892;5.740;2023-06-24T10:04:04;5.63;;;3.17;;
5052;SDS011;2545;50.892;5.740;2023-06-24T10:06:31;5.10;;;3.30;;
5052;SDS011;2545;50.892;5.740;2023-06-24T10:08:57;4.40;;;2.93;;
5052;SDS011;2545;50.892;5.740;2023-06-24T10:11:23;3.73;;;2.97;;
5052;SDS011;2545;50.892;5.740;2023-06-24T10:13:49;5.40;;;3.70;;
5052;SDS011;2545;50.892;5.740;2023-06-24T10:16:15;3.07;;;2.60;;
5052;SDS011;2545;50.892;5.740;2023-06-24T10:18:41;4.80;;;3.00;;
5052;SDS011;2545;50.892;5.740;2023-06-24T10:21:08;4.97;;;2.83;;
5052;SDS011;2545;50.892;5.740;2023-06-24T10:37:09;4.40;;;2.50;;
5052;SDS011;2545;50.892;5.740;2023-06-24T10:45:15;3.77;;;2.77;;
5052;SDS011;2545;50.892;5.740;2023-06-24T10:47:41;5.73;;;3.03;;
5052;SDS011;2545;50.892;5.740;2023-06-24T10:50:10;4.93;;;3.70;;
5052;SDS011;2545;50.892;5.740;2023-06-24T10:52:37;4.73;;;2.93;;
5052;SDS011;2545;50.892;5.740;2023-06-24T10:55:07;3.50;;;3.00;;
5052;SDS011;2545;50.892;5.740;2023-06-24T10:57:33;3.27;;;2.40;;
5052;SDS011;2545;50.892;5.740;2023-06-24T10:59:59;22.43;;;3.13;;
5052;SDS011;2545;50.892;5.740;2023-06-24T11:02:26;3.07;;;2.23;;
5052;SDS011;2545;50.892;5.740;2023-06-24T11:04:53;2.00;;;1.80;;
5052;SDS011;2545;50.892;5.740;2023-06-24T11:07:20;2.33;;;1.73;;
5052;SDS011;2545;50.892;5.740;2023-06-24T11:09:50;2.40;;;2.20;;
5052;SDS011;2545;50.892;5.740;2023-06-24T11:12:17;2.63;;;2.23;;
5052;SDS011;2545;50.892;5.740;2023-06-24T11:14:44;4.00;;;2.43;;
5052;SDS011;2545;50.892;5.740;2023-06-24T11:17:09;2.63;;;2.25;;
5052;SDS011;2545;50.892;5.740;2023-06-24T11:19:35;4.47;;;2.55;;
5052;SDS011;2545;50.892;5.740;2023-06-24T11:22:04;7.57;;;2.40;;
5052;SDS011;2545;50.892;5.740;2023-06-24T11:24:30;2.83;;;1.98;;
5052;SDS011;2545;50.892;5.740;2023-06-24T11:26:55;3.67;;;1.85;;
5052;SDS011;2545;50.892;5.740;2023-06-24T11:29:21;4.57;;;2.50;;
5052;SDS011;2545;50.892;5.740;2023-06-24T11:31:48;3.92;;;1.90;;
5052;SDS011;2545;50.892;5.740;2023-06-24T11:34:13;4.38;;;2.10;;
5052;SDS011;2545;50.892;5.740;2023-06-24T11:36:39;4.72;;;2.03;;
5052;SDS011;2545;50.892;5.740;2023-06-24T11:39:04;3.90;;;1.90;;
5052;SDS011;2545;50.892;5.740;2023-06-24T11:41:29;5.25;;;2.00;;
5052;SDS011;2545;50.892;5.740;2023-06-24T11:43:57;5.55;;;2.40;;
5052;SDS011;2545;50.892;5.740;2023-06-24T11:46:26;4.45;;;2.30;;
5052;SDS011;2545;50.892;5.740;2023-06-24T11:48:53;6.57;;;2.30;;
5052;SDS011;2545;50.892;5.740;2023-06-24T11:51:28;5.80;;;2.55;;
5052;SDS011;2545;50.892;5.740;2023-06-24T11:53:58;4.03;;;2.22;;
5052;SDS011;2545;50.892;5.740;2023-06-24T11:56:33;4.38;;;2.08;;
5052;SDS011;2545;50.892;5.740;2023-06-24T11:59:00;4.03;;;2.00;;
5052;SDS011;2545;50.892;5.740;2023-06-24T12:01:34;5.18;;;2.22;;
5052;SDS011;2545;50.892;5.740;2023-06-24T12:04:12;4.32;;;1.83;;
5052;SDS011;2545;50.892;5.740;2023-06-24T12:06:41;6.70;;;2.20;;
5052;SDS011;2545;50.892;5.740;2023-06-24T12:09:10;3.45;;;1.40;;
5052;SDS011;2545;50.892;5.740;2023-06-24T12:11:36;7.47;;;1.77;;
5052;SDS011;2545;50.892;5.740;2023-06-24T12:14:02;3.78;;;1.85;;
5052;SDS011;2545;50.892;5.740;2023-06-24T12:16:28;4.80;;;2.20;;
5052;SDS011;2545;50.892;5.740;2023-06-24T12:18:54;4.30;;;2.20;;
5052;SDS011;2545;50.892;5.740;2023-06-24T12:21:20;4.88;;;1.88;;
5052;SDS011;2545;50.892;5.740;2023-06-24T12:23:46;4.95;;;2.30;;
5052;SDS011;2545;50.892;5.740;2023-06-24T12:26:11;4.30;;;1.90;;
5052;SDS011;2545;50.892;5.740;2023-06-24T12:28:37;4.35;;;2.38;;
5052;SDS011;2545;50.892;5.740;2023-06-24T12:31:02;4.53;;;2.13;;
5052;SDS011;2545;50.892;5.740;2023-06-24T12:33:28;4.28;;;2.03;;
5052;SDS011;2545;50.892;5.740;2023-06-24T12:35:53;4.25;;;2.13;;
5052;SDS011;2545;50.892;5.740;2023-06-24T12:38:19;7.22;;;2.55;;
5052;SDS011;2545;50.892;5.740;2023-06-24T12:40:44;4.35;;;2.08;;
5052;SDS011;2545;50.892;5.740;2023-06-24T12:43:10;4.75;;;2.30;;
5052;SDS011;2545;50.892;5.740;2023-06-24T12:45:36;3.72;;;1.98;;
5052;SDS011;2545;50.892;5.740;2023-06-24T12:48:02;5.57;;;2.40;;
5052;SDS011;2545;50.892;5.740;2023-06-24T12:50:28;4.95;;;2.47;;
5052;SDS011;2545;50.892;5.740;2023-06-24T12:52:56;3.95;;;1.98;;
5052;SDS011;2545;50.892;5.740;2023-06-24T12:55:22;4.25;;;2.00;;
5052;SDS011;2545;50.892;5.740;2023-06-24T12:57:47;4.20;;;2.17;;
5052;SDS011;2545;50.892;5.740;2023-06-24T13:00:13;6.15;;;2.17;;
5052;SDS011;2545;50.892;5.740;2023-06-24T13:02:39;4.28;;;2.10;;
5052;SDS011;2545;50.892;5.740;2023-06-24T13:05:04;4.47;;;2.38;;
5052;SDS011;2545;50.892;5.740;2023-06-24T13:07:30;4.63;;;2.00;;
5052;SDS011;2545;50.892;5.740;2023-06-24T13:09:55;7.78;;;2.50;;
5052;SDS011;2545;50.892;5.740;2023-06-24T13:12:20;5.57;;;2.40;;
5052;SDS011;2545;50.892;5.740;2023-06-24T13:14:46;6.38;;;2.80;;
5052;SDS011;2545;50.892;5.740;2023-06-24T13:17:11;6.37;;;2.40;;
5052;SDS011;2545;50.892;5.740;2023-06-24T13:19:36;13.43;;;2.73;;
5052;SDS011;2545;50.892;5.740;2023-06-24T13:22:02;6.77;;;3.00;;
5052;SDS011;2545;50.892;5.740;2023-06-24T13:24:27;7.33;;;2.90;;
5052;SDS011;2545;50.892;5.740;2023-06-24T13:26:53;6.60;;;2.50;;
5052;SDS011;2545;50.892;5.740;2023-06-24T13:29:18;7.37;;;2.20;;
5052;SDS011;2545;50.892;5.740;2023-06-24T13:31:45;5.80;;;2.50;;
5052;SDS011;2545;50.892;5.740;2023-06-24T13:34:12;6.97;;;2.77;;
5052;SDS011;2545;50.892;5.740;2023-06-24T13:36:37;5.93;;;2.70;;
5052;SDS011;2545;50.892;5.740;2023-06-24T13:39:04;6.30;;;2.70;;
5052;SDS011;2545;50.892;5.740;2023-06-24T13:41:33;5.97;;;2.70;;
5052;SDS011;2545;50.892;5.740;2023-06-24T13:43:59;6.00;;;2.87;;
5052;SDS011;2545;50.892;5.740;2023-06-24T13:46:25;5.77;;;2.80;;
5052;SDS011;2545;50.892;5.740;2023-06-24T13:48:51;6.27;;;2.30;;
5052;SDS011;2545;50.892;5.740;2023-06-24T13:51:17;6.20;;;2.50;;
5052;SDS011;2545;50.892;5.740;2023-06-24T13:53:43;7.50;;;2.60;;
5052;SDS011;2545;50.892;5.740;2023-06-24T13:56:08;5.30;;;2.40;;
5052;SDS011;2545;50.892;5.740;2023-06-24T13:58:34;8.57;;;2.47;;
5052;SDS011;2545;50.892;5.740;2023-06-24T14:00:59;7.50;;;2.43;;
5052;SDS011;2545;50.892;5.740;2023-06-24T14:03:25;5.78;;;2.30;;
5052;SDS011;2545;50.892;5.740;2023-06-24T14:05:50;5.03;;;2.22;;
5052;SDS011;2545;50.892;5.740;2023-06-24T14:08:16;4.70;;;2.30;;
5052;SDS011;2545;50.892;5.740;2023-06-24T14:10:41;8.05;;;1.83;;
5052;SDS011;2545;50.892;5.740;2023-06-24T14:13:06;4.35;;;1.92;;
5052;SDS011;2545;50.892;5.740;2023-06-24T14:15:32;4.25;;;2.20;;
5052;SDS011;2545;50.892;5.740;2023-06-24T14:17:57;4.15;;;2.17;;
5052;SDS011;2545;50.892;5.740;2023-06-24T14:20:23;3.92;;;2.15;;
5052;SDS011;2545;50.892;5.740;2023-06-24T14:22:49;3.97;;;2.00;;
5052;SDS011;2545;50.892;5.740;2023-06-24T14:25:15;6.00;;;2.47;;
5052;SDS011;2545;50.892;5.740;2023-06-24T14:27:41;3.30;;;1.90;;
5052;SDS011;2545;50.892;5.740;2023-06-24T14:30:06;3.60;;;2.00;;
5052;SDS011;2545;50.892;5.740;2023-06-24T14:32:33;4.43;;;2.03;;
5052;SDS011;2545;50.892;5.740;2023-06-24T14:34:58;2.72;;;1.65;;
5052;SDS011;2545;50.892;5.740;2023-06-24T14:37:24;3.20;;;1.73;;
5052;SDS011;2545;50.892;5.740;2023-06-24T14:39:49;8.30;;;2.15;;
5052;SDS011;2545;50.892;5.740;2023-06-24T14:42:14;3.15;;;1.95;;
5052;SDS011;2545;50.892;5.740;2023-06-24T14:44:40;2.72;;;1.70;;
5052;SDS011;2545;50.892;5.740;2023-06-24T14:47:05;2.53;;;1.90;;
5052;SDS011;2545;50.892;5.740;2023-06-24T14:49:31;2.42;;;1.63;;
5052;SDS011;2545;50.892;5.740;2023-06-24T14:51:57;2.70;;;1.83;;
5052;SDS011;2545;50.892;5.740;2023-06-24T14:54:23;3.22;;;1.88;;
5052;SDS011;2545;50.892;5.740;2023-06-24T14:56:48;2.97;;;1.88;;
5052;SDS011;2545;50.892;5.740;2023-06-24T14:59:13;2.17;;;1.50;;
5052;SDS011;2545;50.892;5.740;2023-06-24T15:01:39;3.20;;;2.08;;
5052;SDS011;2545;50.892;5.740;2023-06-24T15:04:04;2.35;;;1.63;;
5052;SDS011;2545;50.892;5.740;2023-06-24T15:06:29;3.00;;;1.80;;
5052;SDS011;2545;50.892;5.740;2023-06-24T15:08:55;2.90;;;1.70;;
5052;SDS011;2545;50.892;5.740;2023-06-24T15:11:20;2.05;;;1.63;;
5052;SDS011;2545;50.892;5.740;2023-06-24T15:13:45;2.40;;;1.77;;
5052;SDS011;2545;50.892;5.740;2023-06-24T15:16:11;3.10;;;2.10;;
5052;SDS011;2545;50.892;5.740;2023-06-24T15:18:43;2.13;;;1.92;;
5052;SDS011;2545;50.892;5.740;2023-06-24T15:21:12;4.68;;;1.80;;
5052;SDS011;2545;50.892;5.740;2023-06-24T15:23:38;2.20;;;1.67;;
5052;SDS011;2545;50.892;5.740;2023-06-24T15:26:04;2.47;;;1.83;;
5052;SDS011;2545;50.892;5.740;2023-06-24T15:28:29;2.17;;;1.98;;